createdAt,value
2019-03-09T00:02:18.365Z,10.20
2019-03-09T00:04:45.803Z,11.08
2019-03-09T00:07:13.034Z,9.03
2019-03-09T00:09:41.493Z,4.92
2019-03-09T00:12:09.365Z,5.58
2019-03-09T00:14:37.379Z,5.70
2019-03-09T00:17:04.872Z,10.18
2019-03-09T00:19:33.666Z,5.00
2019-03-09T00:22:02.550Z,5.70
2019-03-09T00:24:48.688Z,6.37
2019-03-09T00:27:32.455Z,8.00
2019-03-09T00:30:19.916Z,10.93
2019-03-09T00:32:47.784Z,5.97
2019-03-09T00:35:15.000Z,9.40
2019-03-09T00:37:43.890Z,5.92
2019-03-09T00:40:12.931Z,3.95
2019-03-09T00:42:42.164Z,10.75
2019-03-09T00:45:11.335Z,5.55
2019-03-09T00:47:39.897Z,5.10
2019-03-09T00:50:08.791Z,5.42
2019-03-09T00:52:37.578Z,5.55
2019-03-09T00:55:06.517Z,6.67
2019-03-09T00:57:34.066Z,6.00
2019-03-09T01:00:03.153Z,6.40
2019-03-09T01:02:31.398Z,8.23
2019-03-09T01:04:59.481Z,6.87
2019-03-09T01:07:28.571Z,5.80
2019-03-09T01:09:56.227Z,5.40
2019-03-09T01:12:24.302Z,8.53
2019-03-09T01:14:53.018Z,3.90
2019-03-09T01:17:21.370Z,5.55
2019-03-09T01:19:50.261Z,7.33
2019-03-09T01:22:18.717Z,7.87
2019-03-09T01:24:46.494Z,6.85
2019-03-09T01:27:15.090Z,6.47
2019-03-09T01:29:43.859Z,9.38
2019-03-09T01:32:11.303Z,5.72
2019-03-09T01:34:39.786Z,8.88
2019-03-09T01:37:09.330Z,6.40
2019-03-09T01:39:37.079Z,8.73
2019-03-09T01:42:05.300Z,6.83
2019-03-09T01:44:34.151Z,6.17
2019-03-09T01:47:02.849Z,3.20
2019-03-09T01:49:31.730Z,9.25
2019-03-09T01:52:00.219Z,6.65
2019-03-09T01:54:28.946Z,5.08
2019-03-09T01:56:57.778Z,6.08
2019-03-09T01:59:24.970Z,9.18
2019-03-09T02:01:53.156Z,3.98
2019-03-09T02:04:22.018Z,5.87
2019-03-09T02:06:50.839Z,8.28
2019-03-09T02:09:20.286Z,5.53
2019-03-09T02:11:47.714Z,3.33
2019-03-09T02:14:16.298Z,3.67
2019-03-09T02:16:45.314Z,5.75
2019-03-09T02:19:13.294Z,8.20
2019-03-09T02:21:41.671Z,6.35
2019-03-09T02:24:11.062Z,7.53
2019-03-09T02:26:38.572Z,6.20
2019-03-09T02:29:06.777Z,5.10
2019-03-09T02:31:35.031Z,4.30
2019-03-09T02:34:03.109Z,6.35
2019-03-09T02:36:31.691Z,6.30
2019-03-09T02:39:12.006Z,3.95
2019-03-09T02:41:39.411Z,4.80
2019-03-09T02:44:06.474Z,4.45
2019-03-09T02:46:33.646Z,4.65
2019-03-09T02:49:00.808Z,4.25
2019-03-09T02:51:28.856Z,4.35
2019-03-09T02:53:57.032Z,3.83
2019-03-09T02:56:25.098Z,3.87
2019-03-09T02:58:53.502Z,8.53
2019-03-09T03:01:38.135Z,3.90
2019-03-09T03:04:06.189Z,4.70
2019-03-09T03:06:34.391Z,5.78
2019-03-09T03:09:04.629Z,4.08
2019-03-09T03:11:32.769Z,4.67
2019-03-09T03:14:01.021Z,4.22
2019-03-09T03:16:29.110Z,4.30
2019-03-09T03:18:57.346Z,5.87
2019-03-09T03:21:25.397Z,5.45
2019-03-09T03:23:53.625Z,3.67
2019-03-09T03:26:21.889Z,5.42
2019-03-09T03:28:50.027Z,4.47
2019-03-09T03:31:18.101Z,4.20
2019-03-09T03:33:46.183Z,4.05
2019-03-09T03:36:14.292Z,4.45
2019-03-09T03:38:42.447Z,4.45
2019-03-09T03:41:10.600Z,3.87
2019-03-09T03:43:38.744Z,5.90
2019-03-09T03:46:06.905Z,3.20
2019-03-09T03:48:35.156Z,3.50
2019-03-09T03:51:03.436Z,3.10
2019-03-09T03:53:34.659Z,3.72
2019-03-09T03:56:01.840Z,2.50
2019-03-09T03:58:29.146Z,2.65
2019-03-09T04:00:57.305Z,2.80
2019-03-09T04:03:25.889Z,2.42
2019-03-09T04:05:56.794Z,2.08
2019-03-09T04:08:24.012Z,1.80
2019-03-09T04:10:52.450Z,2.22
2019-03-09T04:13:20.523Z,2.45
2019-03-09T04:15:49.035Z,7.83
2019-03-09T04:18:17.102Z,1.92
2019-03-09T04:20:45.507Z,3.50
2019-03-09T04:23:13.639Z,2.30
2019-03-09T04:25:41.797Z,2.20
2019-03-09T04:28:10.527Z,2.22
2019-03-09T04:30:38.684Z,2.00
2019-03-09T04:33:07.095Z,3.12
2019-03-09T04:35:34.817Z,2.70
2019-03-09T04:38:03.294Z,3.17
2019-03-09T04:40:33.615Z,1.75
2019-03-09T04:43:01.478Z,2.30
2019-03-09T04:45:28.799Z,2.35
2019-03-09T04:47:57.522Z,2.22
2019-03-09T04:50:26.194Z,2.67
2019-03-09T04:52:53.390Z,3.45
2019-03-09T04:55:22.046Z,2.98
2019-03-09T04:57:50.525Z,2.52
2019-03-09T05:00:18.762Z,3.50
2019-03-09T05:02:47.018Z,2.75
2019-03-09T05:05:15.492Z,3.35
2019-03-09T05:07:46.354Z,3.10
2019-03-09T05:10:36.211Z,3.77
2019-03-09T05:13:07.054Z,3.35
2019-03-09T05:15:34.310Z,3.55
2019-03-09T05:18:01.863Z,4.08
2019-03-09T05:20:29.590Z,3.52
2019-03-09T05:22:58.194Z,6.97
2019-03-09T05:25:26.581Z,5.50
2019-03-09T05:27:54.745Z,6.95
2019-03-09T05:30:36.410Z,6.87
2019-03-09T05:33:05.552Z,5.53
2019-03-09T05:35:34.366Z,7.10
2019-03-09T05:38:03.567Z,7.17
2019-03-09T05:40:35.208Z,9.68
2019-03-09T05:43:03.509Z,8.78
2019-03-09T05:45:31.821Z,9.03
2019-03-09T05:47:59.273Z,9.98
2019-03-09T05:50:27.034Z,9.60
2019-03-09T05:53:03.098Z,10.72
2019-03-09T05:55:31.581Z,10.40
2019-03-09T05:58:01.941Z,13.38
2019-03-09T06:00:31.278Z,11.88
2019-03-09T06:02:59.765Z,10.40
2019-03-09T06:05:35.863Z,13.40
2019-03-09T06:08:05.250Z,11.40
2019-03-09T06:10:33.740Z,12.40
2019-03-09T06:13:02.215Z,11.63
2019-03-09T06:15:30.734Z,9.73
2019-03-09T06:17:59.495Z,11.95
2019-03-09T06:20:27.966Z,10.80
2019-03-09T06:22:56.449Z,14.33
2019-03-09T06:25:24.639Z,11.70
2019-03-09T06:27:53.313Z,10.03
2019-03-09T06:30:21.714Z,11.93
2019-03-09T06:33:28.965Z,13.20
2019-03-09T06:36:20.286Z,14.23
2019-03-09T06:39:16.910Z,12.75
2019-03-09T06:42:26.267Z,13.15
2019-03-09T06:44:57.218Z,11.95
2019-03-09T06:47:27.095Z,11.90
2019-03-09T06:49:56.338Z,13.25
2019-03-09T06:52:25.315Z,12.35
2019-03-09T06:54:53.806Z,13.13
2019-03-09T06:57:21.965Z,13.32
2019-03-09T06:59:51.166Z,12.63
2019-03-09T07:02:19.574Z,14.78
2019-03-09T07:04:47.827Z,11.90
2019-03-09T07:07:16.361Z,13.55
2019-03-09T07:09:44.719Z,12.70
2019-03-09T07:12:13.010Z,15.10
2019-03-09T07:15:26.028Z,13.93
2019-03-09T07:18:05.958Z,11.28
2019-03-09T07:20:34.126Z,16.50
2019-03-09T07:23:02.587Z,12.63
2019-03-09T07:25:31.339Z,12.45
2019-03-09T07:28:07.344Z,14.68
2019-03-09T07:30:36.026Z,11.70
2019-03-09T07:33:04.508Z,13.08
2019-03-09T07:35:33.386Z,14.28
2019-03-09T07:38:02.188Z,12.80
2019-03-09T07:40:33.019Z,13.35
2019-03-09T07:43:01.313Z,12.37
2019-03-09T07:45:30.187Z,10.85
2019-03-09T07:47:58.771Z,12.78
2019-03-09T07:50:27.458Z,15.55
2019-03-09T07:52:55.890Z,14.63
2019-03-09T07:55:24.742Z,10.93
2019-03-09T07:57:58.881Z,10.23
2019-03-09T08:00:27.319Z,11.60
2019-03-09T08:02:55.809Z,11.53
2019-03-09T08:05:23.997Z,11.70
2019-03-09T08:07:52.347Z,8.65
2019-03-09T08:10:21.408Z,7.80
2019-03-09T08:12:49.584Z,9.03
2019-03-09T08:15:18.224Z,9.43
2019-03-09T08:17:46.652Z,8.58
2019-03-09T08:20:15.031Z,8.90
2019-03-09T08:22:43.278Z,9.95
2019-03-09T08:25:15.112Z,10.55
2019-03-09T08:27:42.636Z,10.20
2019-03-09T08:30:12.641Z,9.28
2019-03-09T08:32:41.178Z,10.23
2019-03-09T08:35:10.072Z,9.10
2019-03-09T08:37:41.402Z,12.10
2019-03-09T08:40:09.567Z,10.10
2019-03-09T08:42:36.894Z,7.83
2019-03-09T08:45:05.722Z,9.10
2019-03-09T08:47:34.003Z,10.43
2019-03-09T08:50:01.353Z,11.97
2019-03-09T08:52:29.660Z,7.30
2019-03-09T08:54:58.142Z,11.55
2019-03-09T08:57:25.304Z,9.43
2019-03-09T08:59:53.468Z,10.08
2019-03-09T09:02:22.611Z,9.45
2019-03-09T09:04:51.111Z,7.33
2019-03-09T09:07:19.172Z,6.00
2019-03-09T09:09:47.232Z,10.50
2019-03-09T09:12:15.566Z,6.47
2019-03-09T09:14:48.299Z,14.35
2019-03-09T09:17:16.558Z,8.63
2019-03-09T09:19:44.763Z,6.33
2019-03-09T09:22:13.044Z,7.45
2019-03-09T09:24:41.567Z,9.88
2019-03-09T09:27:09.711Z,7.22
2019-03-09T09:29:38.056Z,6.60
2019-03-09T09:32:06.498Z,6.25
2019-03-09T09:34:34.691Z,9.50
2019-03-09T09:37:03.043Z,8.45
2019-03-09T09:39:34.611Z,5.45
2019-03-09T09:42:03.537Z,7.95
2019-03-09T09:44:31.888Z,9.65
2019-03-09T09:46:59.926Z,8.55
2019-03-09T09:49:32.583Z,7.72
2019-03-09T09:51:59.813Z,7.58
2019-03-09T09:54:26.983Z,7.85
2019-03-09T09:56:54.042Z,8.38
2019-03-09T09:59:23.886Z,6.28
2019-03-09T10:01:51.032Z,10.55
2019-03-09T10:04:18.242Z,10.00
2019-03-09T10:06:45.341Z,5.05
2019-03-09T10:09:13.621Z,5.60
2019-03-09T10:11:41.678Z,8.45
2019-03-09T10:14:14.732Z,5.28
2019-03-09T10:16:41.698Z,6.50
2019-03-09T10:19:13.082Z,5.22
2019-03-09T10:21:40.361Z,6.08
2019-03-09T10:24:08.060Z,6.45
2019-03-09T10:26:36.206Z,7.08
2019-03-09T10:29:04.312Z,5.37
2019-03-09T10:31:32.409Z,6.97
2019-03-09T10:34:00.566Z,5.92
2019-03-09T10:36:28.618Z,4.80
2019-03-09T10:38:56.707Z,6.92
2019-03-09T10:41:24.972Z,5.97
2019-03-09T10:43:53.035Z,15.45
2019-03-09T10:46:24.163Z,5.95
2019-03-09T10:48:51.485Z,9.83
2019-03-09T10:51:18.656Z,7.10
2019-03-09T10:53:46.926Z,6.90
2019-03-09T10:56:15.344Z,5.92
2019-03-09T10:58:42.583Z,7.37
2019-03-09T11:01:10.945Z,6.53
2019-03-09T11:04:05.164Z,5.42
2019-03-09T11:06:32.351Z,6.37
2019-03-09T11:08:59.570Z,6.15
2019-03-09T11:11:26.758Z,8.50
2019-03-09T11:13:53.970Z,6.95
2019-03-09T11:16:21.257Z,7.20
2019-03-09T11:18:49.425Z,5.92
2019-03-09T11:21:17.450Z,5.60
2019-03-09T11:23:44.542Z,6.22
2019-03-09T11:26:12.778Z,5.67
2019-03-09T11:28:44.339Z,8.30
2019-03-09T11:31:13.075Z,7.92
2019-03-09T11:33:41.542Z,4.80
2019-03-09T11:36:09.780Z,6.75
2019-03-09T11:38:38.254Z,5.50
2019-03-09T11:41:18.560Z,5.58
2019-03-09T11:43:39.509Z,7.17
2019-03-09T11:46:08.305Z,4.28
2019-03-09T11:48:35.654Z,7.35
2019-03-09T11:51:04.139Z,6.03
2019-03-09T11:53:33.017Z,4.17
2019-03-09T11:56:01.526Z,7.22
2019-03-09T11:58:29.845Z,7.40
2019-03-09T12:00:58.114Z,3.77
2019-03-09T12:03:27.314Z,5.58
2019-03-09T12:05:58.189Z,5.53
2019-03-09T12:08:26.715Z,7.97
2019-03-09T12:10:55.162Z,7.03
2019-03-09T12:13:23.595Z,4.55
2019-03-09T12:15:52.030Z,7.53
2019-03-09T12:18:20.960Z,6.45
2019-03-09T12:20:49.423Z,3.98
2019-03-09T12:23:19.766Z,5.60
2019-03-09T12:25:48.207Z,8.23
2019-03-09T12:28:19.424Z,4.55
2019-03-09T12:30:47.653Z,4.42
2019-03-09T12:33:16.618Z,7.87
2019-03-09T12:35:44.874Z,3.55
2019-03-09T12:38:13.126Z,4.07
2019-03-09T12:40:44.111Z,3.30
2019-03-09T12:43:12.919Z,5.03
2019-03-09T12:45:40.985Z,4.53
2019-03-09T12:48:09.574Z,3.93
2019-03-09T12:50:38.342Z,2.33
2019-03-09T12:53:10.990Z,4.47
2019-03-09T12:55:38.495Z,3.40
2019-03-09T12:58:05.938Z,3.80
2019-03-09T13:00:34.127Z,4.85
2019-03-09T13:03:01.725Z,4.30
2019-03-09T13:05:29.346Z,2.83
2019-03-09T13:07:58.247Z,3.43
2019-03-09T13:10:26.427Z,1.83
2019-03-09T13:12:55.494Z,4.90
2019-03-09T13:15:23.862Z,4.08
2019-03-09T13:17:52.386Z,3.20
2019-03-09T13:20:24.919Z,4.60
2019-03-09T13:22:54.296Z,6.50
2019-03-09T13:25:21.409Z,4.87
2019-03-09T13:27:49.570Z,4.80
2019-03-09T13:30:18.150Z,8.27
2019-03-09T13:32:51.930Z,3.73
2019-03-09T13:35:20.743Z,7.80
2019-03-09T13:37:49.219Z,7.53
2019-03-09T13:40:17.759Z,7.58
2019-03-09T13:42:45.260Z,9.57
2019-03-09T13:45:13.746Z,10.95
2019-03-09T13:47:42.634Z,7.15
2019-03-09T13:50:10.904Z,13.53
2019-03-09T13:52:40.378Z,14.63
2019-03-09T13:55:09.212Z,8.33
2019-03-09T13:57:37.593Z,9.68
2019-03-09T14:00:08.065Z,9.93
2019-03-09T14:02:36.594Z,15.72
2019-03-09T14:05:05.223Z,8.67
2019-03-09T14:07:33.683Z,11.90
2019-03-09T14:10:02.142Z,12.85
2019-03-09T14:12:31.239Z,10.55
2019-03-09T14:14:59.714Z,11.18
2019-03-09T14:17:28.118Z,5.58
2019-03-09T14:19:56.772Z,6.22
2019-03-09T14:22:24.334Z,9.00
2019-03-09T14:24:52.768Z,10.95
2019-03-09T14:27:20.081Z,9.58
2019-03-09T14:29:48.485Z,8.75
2019-03-09T14:32:17.007Z,7.50
2019-03-09T14:34:45.020Z,9.78
2019-03-09T14:37:13.247Z,13.10
2019-03-09T14:39:41.666Z,11.35
2019-03-09T14:42:09.802Z,10.50
2019-03-09T14:44:37.869Z,5.00
2019-03-09T14:47:06.030Z,8.20
2019-03-09T14:49:34.209Z,6.53
2019-03-09T14:52:02.263Z,4.58
2019-03-09T14:54:30.421Z,7.05
2019-03-09T14:56:58.850Z,8.53
2019-03-09T14:59:25.799Z,9.50
2019-03-09T15:01:53.830Z,5.62
2019-03-09T15:04:21.883Z,7.05
2019-03-09T15:06:49.927Z,8.08
2019-03-09T15:09:19.246Z,6.08
2019-03-09T15:11:47.720Z,5.58
2019-03-09T15:14:15.043Z,7.67
2019-03-09T15:16:43.957Z,10.00
2019-03-09T15:19:12.538Z,6.10
2019-03-09T15:21:40.830Z,7.70
2019-03-09T15:24:09.509Z,9.45
2019-03-09T15:26:37.938Z,6.37
2019-03-09T15:29:06.371Z,10.85
2019-03-09T15:31:35.158Z,12.82
2019-03-09T15:34:02.195Z,12.50
2019-03-09T15:36:35.389Z,15.70
2019-03-09T15:39:04.722Z,14.33
2019-03-09T15:41:32.484Z,13.53
2019-03-09T15:44:00.126Z,12.55
2019-03-09T15:46:27.620Z,16.62
2019-03-09T15:48:55.997Z,13.03
2019-03-09T15:51:23.514Z,18.05
2019-03-09T15:53:51.810Z,8.20
2019-03-09T15:56:19.657Z,7.10
2019-03-09T15:58:47.119Z,10.53
2019-03-09T16:01:16.214Z,11.60
2019-03-09T16:03:43.570Z,8.23
2019-03-09T16:06:11.961Z,6.22
2019-03-09T16:08:41.154Z,9.13
2019-03-09T16:11:08.756Z,8.98
2019-03-09T16:13:37.121Z,5.60
2019-03-09T16:16:05.578Z,6.70
2019-03-09T16:18:34.575Z,11.15
2019-03-09T16:21:02.727Z,11.05
2019-03-09T16:23:31.798Z,5.33
2019-03-09T16:25:59.533Z,7.62
2019-03-09T16:28:27.969Z,4.85
2019-03-09T16:30:57.603Z,2.45
2019-03-09T16:33:26.580Z,5.10
2019-03-09T16:35:54.951Z,1.95
2019-03-09T16:38:25.582Z,2.35
2019-03-09T16:41:07.019Z,5.78
2019-03-09T16:43:34.325Z,6.08
2019-03-09T16:46:01.682Z,2.90
2019-03-09T16:48:29.356Z,1.85
2019-03-09T16:50:57.013Z,5.10
2019-03-09T16:53:24.046Z,4.50
2019-03-09T16:55:51.231Z,5.03
2019-03-09T16:58:18.591Z,5.97
2019-03-09T17:00:46.634Z,7.20
2019-03-09T17:03:14.503Z,6.53
2019-03-09T17:05:42.577Z,7.53
2019-03-09T17:08:10.899Z,3.80
2019-03-09T17:10:39.192Z,3.27
2019-03-09T17:13:07.326Z,4.65
2019-03-09T17:15:35.474Z,4.95
2019-03-09T17:18:03.547Z,9.70
2019-03-09T17:20:37.403Z,5.85
2019-03-09T17:23:05.648Z,3.17
2019-03-09T17:25:33.777Z,6.53
2019-03-09T17:28:05.381Z,5.92
2019-03-09T17:30:33.791Z,7.53
2019-03-09T17:33:01.075Z,4.80
2019-03-09T17:35:32.122Z,7.33
2019-03-09T17:38:00.514Z,8.98
2019-03-09T17:40:31.353Z,7.12
2019-03-09T17:42:58.855Z,4.20
2019-03-09T17:45:27.391Z,10.05
2019-03-09T17:47:55.558Z,7.83
2019-03-09T17:50:24.021Z,8.53
2019-03-09T17:52:52.186Z,10.45
2019-03-09T17:55:22.691Z,10.08
2019-03-09T17:57:50.630Z,5.75
2019-03-09T18:00:20.642Z,7.30
2019-03-09T18:02:48.923Z,6.25
2019-03-09T18:05:16.867Z,9.93
2019-03-09T18:07:45.367Z,7.87
2019-03-09T18:10:25.559Z,8.73
2019-03-09T18:12:53.066Z,5.45
2019-03-09T18:15:20.937Z,5.87
2019-03-09T18:17:48.688Z,6.03
2019-03-09T18:20:16.861Z,6.30
2019-03-09T18:22:49.064Z,8.83
2019-03-09T18:25:17.341Z,10.35
2019-03-09T18:27:45.703Z,11.12
2019-03-09T18:30:14.911Z,5.75
2019-03-09T18:32:42.844Z,8.55
2019-03-09T18:35:10.995Z,4.58
2019-03-09T18:37:39.144Z,6.00
2019-03-09T18:40:07.641Z,8.33
2019-03-09T18:42:35.878Z,5.83
2019-03-09T18:45:03.418Z,7.35
2019-03-09T18:47:31.638Z,5.17
2019-03-09T18:49:59.562Z,6.35
2019-03-09T18:52:27.902Z,5.95
2019-03-09T18:54:55.822Z,5.55
2019-03-09T18:57:26.284Z,10.80
2019-03-09T18:59:53.514Z,6.10
2019-03-09T19:02:20.818Z,9.35
2019-03-09T19:04:52.218Z,6.97
2019-03-09T19:07:19.256Z,8.18
2019-03-09T19:09:46.194Z,6.47
2019-03-09T19:12:14.338Z,5.90
2019-03-09T19:14:42.489Z,7.95
2019-03-09T19:17:10.672Z,13.90
2019-03-09T19:19:39.098Z,4.67
2019-03-09T19:22:07.473Z,6.12
2019-03-09T19:24:35.900Z,10.48
2019-03-09T19:27:04.146Z,7.53
2019-03-09T19:29:33.226Z,9.75
2019-03-09T19:32:01.446Z,5.92
2019-03-09T19:34:33.454Z,9.40
2019-03-09T19:37:08.895Z,5.92
2019-03-09T19:39:40.498Z,8.00
2019-03-09T19:42:11.976Z,10.93
2019-03-09T19:44:39.980Z,5.80
2019-03-09T19:47:07.550Z,10.93
2019-03-09T19:49:35.987Z,4.55
2019-03-09T19:52:03.854Z,9.30
2019-03-09T19:54:31.142Z,7.95
2019-03-09T19:56:58.396Z,8.18
2019-03-09T19:59:26.183Z,10.50
2019-03-09T20:01:53.456Z,8.18
2019-03-09T20:04:20.969Z,10.80
2019-03-09T20:06:48.143Z,9.90
2019-03-09T20:09:15.094Z,9.85
2019-03-09T20:11:43.578Z,6.45
2019-03-09T20:14:10.750Z,11.15
2019-03-09T20:16:38.377Z,9.50
2019-03-09T20:19:07.601Z,6.42
2019-03-09T20:21:35.049Z,8.90
2019-03-09T20:24:02.086Z,9.23
2019-03-09T20:26:30.906Z,14.43
2019-03-09T20:28:58.854Z,8.08
2019-03-09T20:31:27.299Z,15.20
2019-03-09T20:33:55.992Z,14.10
2019-03-09T20:36:27.747Z,12.45
2019-03-09T20:38:55.004Z,12.28
2019-03-09T20:41:22.705Z,11.15
2019-03-09T20:43:50.509Z,8.85
2019-03-09T20:46:18.997Z,10.32
2019-03-09T20:48:46.219Z,18.80
2019-03-09T20:51:14.946Z,8.68
2019-03-09T20:53:43.374Z,9.08
2019-03-09T20:56:11.708Z,4.85
2019-03-09T20:58:40.394Z,12.63
2019-03-09T21:01:07.853Z,10.85
2019-03-09T21:03:36.317Z,6.80
2019-03-09T21:06:04.359Z,13.25
2019-03-09T21:08:32.636Z,9.35
2019-03-09T21:11:04.248Z,8.25
2019-03-09T21:13:31.712Z,7.03
2019-03-09T21:16:00.270Z,12.85
2019-03-09T21:18:27.857Z,9.30
2019-03-09T21:20:56.325Z,9.00
2019-03-09T21:23:24.699Z,6.05
2019-03-09T21:25:53.183Z,5.87
2019-03-09T21:28:22.897Z,12.78
2019-03-09T21:30:50.386Z,10.25
2019-03-09T21:33:18.027Z,11.88
2019-03-09T21:35:46.368Z,8.55
2019-03-09T21:38:14.534Z,9.80
2019-03-09T21:40:42.590Z,5.33
2019-03-09T21:43:10.827Z,12.15
2019-03-09T21:45:39.047Z,8.18
2019-03-09T21:48:07.214Z,12.37
2019-03-09T21:50:35.498Z,8.73
2019-03-09T21:53:03.769Z,6.67
2019-03-09T21:55:32.030Z,6.42
2019-03-09T21:57:58.994Z,8.08
2019-03-09T22:00:27.354Z,8.28
2019-03-09T22:02:55.950Z,9.88
2019-03-09T22:05:24.249Z,8.38
2019-03-09T22:07:53.061Z,9.00
2019-03-09T22:10:21.224Z,13.45
2019-03-09T22:12:50.210Z,12.07
2019-03-09T22:15:17.857Z,7.03
2019-03-09T22:17:46.387Z,7.60
2019-03-09T22:20:14.609Z,4.40
2019-03-09T22:22:43.111Z,6.50
2019-03-09T22:25:11.611Z,8.65
2019-03-09T22:27:40.039Z,8.20
2019-03-09T22:30:09.698Z,13.90
2019-03-09T22:32:37.977Z,9.95
2019-03-09T22:35:09.640Z,5.45
2019-03-09T22:37:36.662Z,9.58
2019-03-09T22:40:05.614Z,8.83
2019-03-09T22:42:33.695Z,3.83
2019-03-09T22:45:01.936Z,6.50
2019-03-09T22:47:31.146Z,15.23
2019-03-09T22:49:58.401Z,6.90
2019-03-09T22:52:27.091Z,7.53
2019-03-09T22:54:55.141Z,8.93
2019-03-09T22:57:23.258Z,8.50
2019-03-09T22:59:51.226Z,7.50
2019-03-09T23:02:19.391Z,6.65
2019-03-09T23:04:47.662Z,9.60
2019-03-09T23:07:16.045Z,5.80
2019-03-09T23:09:44.182Z,8.85
2019-03-09T23:12:12.531Z,6.05
2019-03-09T23:14:40.906Z,12.45
2019-03-09T23:17:08.042Z,5.78
2019-03-09T23:19:36.233Z,12.07
2019-03-09T23:22:04.465Z,7.78
2019-03-09T23:24:32.729Z,9.78
2019-03-09T23:27:02.443Z,14.78
2019-03-09T23:29:30.482Z,9.00
2019-03-09T23:31:58.437Z,6.05
2019-03-09T23:34:26.583Z,8.58
2019-03-09T23:36:54.623Z,14.75
2019-03-09T23:39:22.742Z,10.70
2019-03-09T23:41:50.983Z,9.53
2019-03-09T23:44:19.110Z,9.50
2019-03-09T23:46:47.254Z,8.45
2019-03-09T23:49:15.293Z,8.33
2019-03-09T23:51:43.429Z,10.80
2019-03-09T23:54:11.806Z,19.15
2019-03-09T23:56:39.859Z,9.85
2019-03-09T23:59:08.003Z,12.00
